createdAt,value
2024-04-15T00:00:29.022Z,100.00
2024-04-15T00:02:56.444Z,100.00
2024-04-15T00:05:23.782Z,100.00
2024-04-15T00:07:51.832Z,100.00
2024-04-15T00:10:19.232Z,100.00
2024-04-15T00:12:46.569Z,100.00
2024-04-15T00:15:13.855Z,100.00
2024-04-15T00:17:41.626Z,100.00
2024-04-15T00:20:09.206Z,100.00
2024-04-15T00:22:36.407Z,100.00
2024-04-15T00:25:04.120Z,100.00
2024-04-15T00:27:32.268Z,100.00
2024-04-15T00:29:59.733Z,100.00
2024-04-15T00:32:26.972Z,100.00
2024-04-15T00:34:54.783Z,99.83
2024-04-15T00:37:22.091Z,100.00
2024-04-15T00:39:49.615Z,100.00
2024-04-15T00:42:16.978Z,100.00
2024-04-15T00:44:44.172Z,100.00
2024-04-15T00:47:11.519Z,100.00
2024-04-15T00:49:39.305Z,100.00
2024-04-15T00:52:07.012Z,100.00
2024-04-15T00:54:35.821Z,99.19
2024-04-15T00:57:03.362Z,98.02
2024-04-15T00:59:31.905Z,97.87
2024-04-15T01:02:00.114Z,97.11
2024-04-15T01:04:27.746Z,96.62
2024-04-15T01:06:55.481Z,96.58
2024-04-15T01:09:24.633Z,96.56
2024-04-15T01:11:52.400Z,97.00
2024-04-15T01:14:20.876Z,97.98
2024-04-15T01:16:48.075Z,98.54
2024-04-15T01:19:15.711Z,98.29
2024-04-15T01:21:43.014Z,98.57
2024-04-15T01:24:10.767Z,98.10
2024-04-15T01:26:38.078Z,97.89
2024-04-15T01:29:05.334Z,97.96
2024-04-15T01:31:32.715Z,98.09
2024-04-15T01:34:00.195Z,98.85
2024-04-15T01:36:27.461Z,98.67
2024-04-15T01:38:54.716Z,97.69
2024-04-15T01:41:22.196Z,97.26
2024-04-15T01:43:49.433Z,96.74
2024-04-15T01:46:18.789Z,96.61
2024-04-15T01:48:46.066Z,96.71
2024-04-15T01:51:13.471Z,96.80
2024-04-15T01:53:40.940Z,96.74
2024-04-15T01:56:09.332Z,96.68
2024-04-15T01:58:36.562Z,95.93
2024-04-15T02:01:06.011Z,95.31
2024-04-15T02:03:34.127Z,95.22
2024-04-15T02:06:04.182Z,95.42
2024-04-15T02:08:31.384Z,95.41
2024-04-15T02:10:58.740Z,95.85
2024-04-15T02:13:26.251Z,95.99
2024-04-15T02:15:53.893Z,95.93
2024-04-15T02:18:21.438Z,96.05
2024-04-15T02:20:49.052Z,96.58
2024-04-15T02:23:16.430Z,96.60
2024-04-15T02:25:44.390Z,97.09
2024-04-15T02:28:11.641Z,97.55
2024-04-15T02:30:42.032Z,97.78
2024-04-15T02:33:09.491Z,98.24
2024-04-15T02:35:36.814Z,98.65
2024-04-15T02:38:04.194Z,99.01
2024-04-15T02:40:31.522Z,100.00
2024-04-15T02:42:59.268Z,100.00
2024-04-15T02:45:26.620Z,100.00
2024-04-15T02:47:54.130Z,100.00
2024-04-15T02:50:21.400Z,100.00
2024-04-15T02:52:48.685Z,100.00
2024-04-15T02:55:16.016Z,100.00
2024-04-15T02:57:43.228Z,100.00
2024-04-15T03:00:11.070Z,100.00
2024-04-15T03:02:38.844Z,100.00
2024-04-15T03:05:06.387Z,100.00
2024-04-15T03:07:33.703Z,100.00
2024-04-15T03:10:01.115Z,100.00
2024-04-15T03:12:30.861Z,100.00
2024-04-15T03:14:58.201Z,100.00
2024-04-15T03:17:25.632Z,100.00
2024-04-15T03:19:53.994Z,100.00
2024-04-15T03:22:22.461Z,100.00
2024-04-15T03:24:50.556Z,100.00
2024-04-15T03:27:18.277Z,100.00
2024-04-15T03:29:45.581Z,100.00
2024-04-15T03:32:12.951Z,100.00
2024-04-15T03:34:40.248Z,100.00
2024-04-15T03:37:07.721Z,100.00
2024-04-15T03:39:35.047Z,100.00
2024-04-15T03:42:02.398Z,100.00
2024-04-15T03:44:29.711Z,100.00
2024-04-15T03:46:57.083Z,100.00
2024-04-15T03:49:24.325Z,100.00
2024-04-15T03:51:51.560Z,100.00
2024-04-15T03:54:19.189Z,100.00
2024-04-15T03:56:46.366Z,100.00
2024-04-15T03:59:13.631Z,100.00
2024-04-15T04:01:42.767Z,100.00
2024-04-15T04:04:10.467Z,100.00
2024-04-15T04:06:37.965Z,100.00
2024-04-15T04:09:08.294Z,100.00
2024-04-15T04:11:35.637Z,100.00
2024-04-15T04:14:02.994Z,100.00
2024-04-15T04:16:30.498Z,98.74
2024-04-15T04:18:57.902Z,98.48
2024-04-15T04:21:25.138Z,97.73
2024-04-15T04:23:52.804Z,96.00
2024-04-15T04:26:20.016Z,95.24
2024-04-15T04:28:47.257Z,94.70
2024-04-15T04:31:14.662Z,94.49
2024-04-15T04:33:41.938Z,93.57
2024-04-15T04:36:09.369Z,93.08
2024-04-15T04:38:36.671Z,91.15
2024-04-15T04:41:04.632Z,90.91
2024-04-15T04:43:31.887Z,90.28
2024-04-15T04:45:59.170Z,89.52
2024-04-15T04:48:26.467Z,89.18
2024-04-15T04:50:53.757Z,89.04
2024-04-15T04:53:21.483Z,87.65
2024-04-15T04:55:48.910Z,87.49
2024-04-15T04:58:16.327Z,87.69
2024-04-15T05:00:46.748Z,87.42
2024-04-15T05:03:17.102Z,86.81
2024-04-15T05:05:56.986Z,87.01
2024-04-15T05:08:30.019Z,86.82
2024-04-15T05:10:57.506Z,85.63
2024-04-15T05:13:24.962Z,84.01
2024-04-15T05:15:52.275Z,83.47
2024-04-15T05:18:19.699Z,83.14
2024-04-15T05:20:47.381Z,82.81
2024-04-15T05:23:14.570Z,83.00
2024-04-15T05:25:41.804Z,81.53
2024-04-15T05:28:11.129Z,81.07
2024-04-15T05:30:40.922Z,80.78
2024-04-15T05:33:09.316Z,79.97
2024-04-15T05:35:36.792Z,79.77
2024-04-15T05:38:06.719Z,79.13
2024-04-15T05:40:36.677Z,77.44
2024-04-15T05:43:09.459Z,76.16
2024-04-15T05:45:45.917Z,75.31
2024-04-15T05:48:13.329Z,75.34
2024-04-15T05:50:41.536Z,73.82
2024-04-15T05:53:10.848Z,71.60
2024-04-15T05:55:41.351Z,71.61
2024-04-15T05:58:08.928Z,72.16
2024-04-15T06:00:39.788Z,72.66
2024-04-15T06:03:10.718Z,71.90
2024-04-15T06:05:38.472Z,70.16
2024-04-15T06:08:11.292Z,70.67
2024-04-15T06:10:42.587Z,70.66
2024-04-15T06:13:12.914Z,69.61
2024-04-15T06:15:40.733Z,69.84
2024-04-15T06:18:08.900Z,68.30
2024-04-15T06:20:36.130Z,67.76
2024-04-15T06:23:06.535Z,66.34
2024-04-15T06:25:33.972Z,64.66
2024-04-15T06:28:01.598Z,66.16
2024-04-15T06:30:29.714Z,67.37
2024-04-15T06:33:01.215Z,66.89
2024-04-15T06:35:29.665Z,65.78
2024-04-15T06:37:58.565Z,64.26
2024-04-15T06:40:26.865Z,65.52
2024-04-15T06:42:54.669Z,66.22
2024-04-15T06:45:22.197Z,65.41
2024-04-15T06:47:51.677Z,65.81
2024-04-15T06:50:20.571Z,63.48
2024-04-15T06:52:47.775Z,63.66
2024-04-15T06:55:17.800Z,62.29
2024-04-15T06:57:47.789Z,62.76
2024-04-15T07:00:18.123Z,62.35
2024-04-15T07:02:46.739Z,61.30
2024-04-15T07:05:14.645Z,60.89
2024-04-15T07:07:45.358Z,61.00
2024-04-15T07:10:13.045Z,59.71
2024-04-15T07:12:40.491Z,59.48
2024-04-15T07:15:07.941Z,59.90
2024-04-15T07:17:37.440Z,59.62
2024-04-15T07:20:08.838Z,58.11
2024-04-15T07:22:36.161Z,54.38
2024-04-15T07:25:04.362Z,54.97
2024-04-15T07:27:34.133Z,56.25
2024-04-15T07:30:02.341Z,55.55
2024-04-15T07:32:33.419Z,55.42
2024-04-15T07:35:00.823Z,56.22
2024-04-15T07:37:28.224Z,56.12
2024-04-15T07:39:55.733Z,55.99
2024-04-15T07:42:28.608Z,56.56
2024-04-15T07:45:03.911Z,57.08
2024-04-15T07:47:31.336Z,57.38
2024-04-15T07:50:01.704Z,56.08
2024-04-15T07:52:31.504Z,56.60
2024-04-15T07:55:00.515Z,56.05
2024-04-15T07:57:27.872Z,56.09
2024-04-15T07:59:55.081Z,55.85
2024-04-15T08:02:22.509Z,56.72
2024-04-15T08:04:50.808Z,56.48
2024-04-15T08:07:18.437Z,56.38
2024-04-15T08:09:45.820Z,57.30
2024-04-15T08:12:13.412Z,57.39
2024-04-15T08:14:40.886Z,55.57
2024-04-15T08:17:08.909Z,53.91
2024-04-15T08:19:42.672Z,53.05
2024-04-15T08:22:10.177Z,50.92
2024-04-15T08:24:43.036Z,49.30
2024-04-15T08:27:10.393Z,49.28
2024-04-15T08:29:37.864Z,49.79
2024-04-15T08:32:05.430Z,51.17
2024-04-15T08:34:35.817Z,52.39
2024-04-15T08:37:06.263Z,49.88
2024-04-15T08:39:35.469Z,49.26
2024-04-15T08:42:29.922Z,47.83
2024-04-15T08:45:01.247Z,48.38
2024-04-15T08:47:36.007Z,47.92
2024-04-15T08:50:07.151Z,49.26
2024-04-15T08:52:34.478Z,50.10
2024-04-15T08:55:05.485Z,50.54
2024-04-15T08:57:33.500Z,51.13
2024-04-15T09:00:00.930Z,51.64
2024-04-15T09:02:31.128Z,52.67
2024-04-15T09:04:59.408Z,53.09
2024-04-15T09:07:26.846Z,52.71
2024-04-15T09:12:50.828Z,53.09
2024-04-15T09:15:24.251Z,52.38
2024-04-15T09:17:58.110Z,52.02
2024-04-15T09:20:38.255Z,49.67
2024-04-15T09:23:12.146Z,49.91
2024-04-15T09:25:42.120Z,51.00
2024-04-15T09:28:09.467Z,51.52
2024-04-15T09:30:37.079Z,51.64
2024-04-15T09:33:05.194Z,51.44
2024-04-15T09:35:33.449Z,51.23
2024-04-15T09:38:01.529Z,52.00
2024-04-15T09:40:30.417Z,53.22
2024-04-15T09:42:58.460Z,53.54
2024-04-15T09:45:26.002Z,53.16
2024-04-15T09:47:55.612Z,52.64
2024-04-15T09:50:23.986Z,52.77
2024-04-15T09:52:57.761Z,53.04
2024-04-15T09:55:42.040Z,53.17
2024-04-15T09:58:10.193Z,53.81
2024-04-15T10:00:41.805Z,54.23
2024-04-15T10:03:15.291Z,54.36
2024-04-15T10:05:42.967Z,53.98
2024-04-15T10:08:10.526Z,54.52
2024-04-15T10:10:38.582Z,54.01
2024-04-15T10:13:06.801Z,54.10
2024-04-15T10:15:41.142Z,54.00
2024-04-15T10:18:16.297Z,54.30
2024-04-15T10:20:47.428Z,54.14
2024-04-15T10:23:20.344Z,53.71
2024-04-15T10:25:50.720Z,54.68
2024-04-15T10:28:19.126Z,54.52
2024-04-15T10:30:47.842Z,54.25
2024-04-15T10:33:17.308Z,54.23
2024-04-15T10:35:48.532Z,54.76
2024-04-15T10:38:15.755Z,54.72
2024-04-15T10:40:48.254Z,54.22
2024-04-15T10:43:18.403Z,54.92
2024-04-15T10:45:49.679Z,54.30
2024-04-15T10:48:17.138Z,54.80
2024-04-15T10:50:44.993Z,53.77
2024-04-15T10:53:12.745Z,54.15
2024-04-15T10:55:43.037Z,54.96
2024-04-15T10:58:11.147Z,54.77
2024-04-15T11:00:40.410Z,54.65
2024-04-15T11:03:08.880Z,55.01
2024-04-15T11:05:37.790Z,55.26
2024-04-15T11:08:06.574Z,55.26
2024-04-15T11:10:33.826Z,54.36
2024-04-15T11:13:01.506Z,54.64
2024-04-15T11:15:29.420Z,54.66
2024-04-15T11:17:57.428Z,54.84
2024-04-15T11:20:25.363Z,54.92
2024-04-15T11:22:54.918Z,55.68
2024-04-15T11:25:22.938Z,55.25
2024-04-15T11:27:58.361Z,55.86
2024-04-15T11:30:30.664Z,56.17
2024-04-15T11:33:00.834Z,56.43
2024-04-15T11:35:28.483Z,56.65
2024-04-15T11:38:00.140Z,57.03
2024-04-15T11:40:27.861Z,56.99
2024-04-15T11:42:58.607Z,57.14
2024-04-15T11:45:25.871Z,57.29
2024-04-15T11:47:56.842Z,57.28
2024-04-15T11:50:24.149Z,57.67
2024-04-15T11:52:51.905Z,57.63
2024-04-15T11:55:21.747Z,57.91
2024-04-15T11:57:49.624Z,58.29
2024-04-15T12:00:17.513Z,58.13
2024-04-15T12:02:48.973Z,58.17
2024-04-15T12:05:17.353Z,58.50
2024-04-15T12:07:45.181Z,58.66
2024-04-15T12:10:13.525Z,59.63
2024-04-15T12:12:41.403Z,60.43
2024-04-15T12:15:12.052Z,61.00
2024-04-15T12:17:39.981Z,62.58
2024-04-15T12:20:09.581Z,64.07
2024-04-15T12:22:37.088Z,63.69
2024-04-15T12:25:08.590Z,63.53
2024-04-15T12:27:45.554Z,62.65
2024-04-15T12:30:32.394Z,62.91
2024-04-15T12:33:00.118Z,63.83
2024-04-15T12:35:27.390Z,63.69
2024-04-15T12:37:56.079Z,64.87
2024-04-15T12:40:23.617Z,67.62
2024-04-15T12:42:52.109Z,69.96
2024-04-15T12:45:19.397Z,71.65
2024-04-15T12:47:46.923Z,71.72
2024-04-15T12:50:14.340Z,73.17
2024-04-15T12:52:42.930Z,74.76
2024-04-15T12:55:10.348Z,76.01
2024-04-15T12:57:37.680Z,77.89
2024-04-15T13:00:06.565Z,78.75
2024-04-15T13:02:39.943Z,79.52
2024-04-15T13:05:09.281Z,80.20
2024-04-15T13:07:37.037Z,80.65
2024-04-15T13:10:05.510Z,80.88
2024-04-15T13:12:33.267Z,80.45
2024-04-15T13:15:00.614Z,79.95
2024-04-15T13:18:05.810Z,76.36
2024-04-15T13:21:55.642Z,71.90
2024-04-15T13:25:38.002Z,70.49
2024-04-15T13:28:48.059Z,70.15
2024-04-15T13:31:15.749Z,70.55
2024-04-15T13:33:45.847Z,72.34
2024-04-15T13:36:13.954Z,72.73
2024-04-15T13:38:41.787Z,72.49
2024-04-15T13:41:09.148Z,70.50
2024-04-15T13:43:36.737Z,66.79
2024-04-15T13:46:05.648Z,57.82
2024-04-15T13:48:33.776Z,58.61
2024-04-15T13:51:01.212Z,55.20
2024-04-15T13:53:28.675Z,56.52
2024-04-15T13:55:55.903Z,60.34
2024-04-15T13:58:23.279Z,62.34
2024-04-15T14:00:55.516Z,64.41
2024-04-15T14:03:23.744Z,65.29
2024-04-15T14:05:51.581Z,66.72
2024-04-15T14:08:19.384Z,67.51
2024-04-15T14:10:46.688Z,66.75
2024-04-15T14:13:14.402Z,67.87
2024-04-15T14:15:42.794Z,67.98
2024-04-15T14:18:10.645Z,67.71
2024-04-15T14:20:38.015Z,67.09
2024-04-15T14:23:06.281Z,66.99
2024-04-15T14:25:33.766Z,66.13
2024-04-15T14:28:01.312Z,65.18
2024-04-15T14:30:28.889Z,66.42
2024-04-15T14:32:56.286Z,65.84
2024-04-15T14:35:23.797Z,66.33
2024-04-15T14:37:51.461Z,65.44
2024-04-15T14:40:23.419Z,66.13
2024-04-15T14:42:52.568Z,66.50
2024-04-15T14:45:19.976Z,66.77
2024-04-15T14:47:47.375Z,67.47
2024-04-15T14:50:15.108Z,70.92
2024-04-15T14:52:43.722Z,78.20
2024-04-15T14:55:11.054Z,77.69
2024-04-15T14:57:44.996Z,73.83
2024-04-15T15:00:17.852Z,77.20
2024-04-15T15:02:45.780Z,79.99
2024-04-15T15:05:14.084Z,82.32
2024-04-15T15:07:43.889Z,84.29
2024-04-15T15:10:11.452Z,85.81
2024-04-15T15:12:38.760Z,87.48
2024-04-15T15:15:06.854Z,89.19
2024-04-15T15:17:36.668Z,90.29
2024-04-15T15:20:08.446Z,91.48
2024-04-15T15:22:35.741Z,92.37
2024-04-15T15:25:05.607Z,92.98
2024-04-15T15:27:34.095Z,93.72
2024-04-15T15:30:01.971Z,93.82
2024-04-15T15:32:32.512Z,94.04
2024-04-15T15:35:05.171Z,94.38
2024-04-15T15:37:33.090Z,94.81
2024-04-15T15:40:00.565Z,94.99
2024-04-15T15:42:31.263Z,95.44
2024-04-15T15:45:02.037Z,95.21
2024-04-15T15:47:35.878Z,94.96
2024-04-15T15:50:04.069Z,94.17
2024-04-15T15:52:55.415Z,93.33
2024-04-15T15:55:26.120Z,93.02
2024-04-15T15:57:57.535Z,92.91
2024-04-15T16:00:27.763Z,92.83
2024-04-15T16:02:55.390Z,92.63
2024-04-15T16:05:26.716Z,91.11
2024-04-15T16:07:58.842Z,87.76
2024-04-15T16:10:26.138Z,84.38
2024-04-15T16:13:13.360Z,84.29
2024-04-15T16:15:43.592Z,83.10
2024-04-15T16:18:19.163Z,82.55
2024-04-15T16:20:49.669Z,81.67
2024-04-15T16:23:23.717Z,80.60
2024-04-15T16:25:52.923Z,79.81
2024-04-15T16:28:20.198Z,79.23
2024-04-15T16:30:48.350Z,79.72
2024-04-15T16:33:15.759Z,81.05
2024-04-15T16:35:44.310Z,84.11
2024-04-15T16:38:11.625Z,86.44
2024-04-15T16:40:39.021Z,89.76
2024-04-15T16:43:11.263Z,93.61
2024-04-15T16:45:39.364Z,96.14
2024-04-15T16:48:10.428Z,99.22
2024-04-15T16:50:37.655Z,100.00
2024-04-15T16:53:23.815Z,100.00
2024-04-15T16:55:52.774Z,100.00
2024-04-15T16:58:24.664Z,100.00
2024-04-15T17:00:55.006Z,100.00
2024-04-15T17:03:22.882Z,100.00
2024-04-15T17:06:09.193Z,100.00
2024-04-15T17:08:57.852Z,100.00
2024-04-15T17:11:33.662Z,100.00
2024-04-15T17:14:04.940Z,100.00
2024-04-15T17:16:38.467Z,100.00
2024-04-15T17:19:09.068Z,100.00
2024-04-15T17:21:37.088Z,100.00
2024-04-15T17:24:04.916Z,100.00
2024-04-15T17:26:38.220Z,100.00
2024-04-15T17:29:05.559Z,100.00
2024-04-15T17:31:32.965Z,100.00
2024-04-15T17:34:00.477Z,100.00
2024-04-15T17:36:28.003Z,100.00
2024-04-15T17:38:57.875Z,100.00
2024-04-15T17:41:47.068Z,100.00
2024-04-15T17:44:15.131Z,100.00
2024-04-15T17:46:43.459Z,100.00
2024-04-15T17:49:14.001Z,100.00
2024-04-15T17:51:43.348Z,100.00
2024-04-15T17:54:13.969Z,100.00
2024-04-15T17:56:43.783Z,100.00
2024-04-15T17:59:14.415Z,100.00
2024-04-15T18:01:44.418Z,100.00
2024-04-15T18:04:13.838Z,100.00
2024-04-15T18:06:44.618Z,100.00
2024-04-15T18:09:15.389Z,100.00
2024-04-15T18:11:46.029Z,100.00
2024-04-15T18:14:13.474Z,100.00
2024-04-15T18:16:40.888Z,100.00
2024-04-15T18:19:10.415Z,100.00
2024-04-15T18:21:38.079Z,100.00
2024-04-15T18:24:07.288Z,100.00
2024-04-15T18:26:35.900Z,100.00
2024-04-15T18:29:06.383Z,100.00
2024-04-15T18:31:36.374Z,100.00
2024-04-15T18:34:04.459Z,100.00
2024-04-15T18:36:33.038Z,100.00
2024-04-15T18:39:00.551Z,100.00
2024-04-15T18:41:29.282Z,100.00
2024-04-15T18:43:57.085Z,100.00
2024-04-15T18:46:25.215Z,100.00
2024-04-15T18:48:55.501Z,100.00
2024-04-15T18:51:22.963Z,100.00
2024-04-15T18:53:50.764Z,100.00
2024-04-15T18:56:20.645Z,100.00
2024-04-15T18:58:53.649Z,100.00
2024-04-15T19:01:23.473Z,100.00
2024-04-15T19:03:53.083Z,100.00
2024-04-15T19:06:20.322Z,100.00
2024-04-15T19:09:20.557Z,100.00
2024-04-15T19:11:50.499Z,100.00
2024-04-15T19:14:21.473Z,100.00
2024-04-15T19:16:58.568Z,100.00
2024-04-15T19:19:31.611Z,100.00
2024-04-15T19:22:00.815Z,100.00
2024-04-15T19:24:29.384Z,100.00
2024-04-15T19:26:56.815Z,100.00
2024-04-15T19:29:29.900Z,100.00
2024-04-15T19:31:57.815Z,100.00
2024-04-15T19:34:28.846Z,100.00
2024-04-15T19:37:45.870Z,100.00
2024-04-15T19:40:13.353Z,100.00
2024-04-15T19:42:42.997Z,100.00
2024-04-15T19:45:31.116Z,100.00
2024-04-15T19:48:01.616Z,100.00
2024-04-15T19:50:29.045Z,100.00
2024-04-15T19:53:07.614Z,100.00
2024-04-15T19:55:37.777Z,100.00
2024-04-15T19:58:07.801Z,100.00
2024-04-15T20:00:35.264Z,100.00
2024-04-15T20:03:23.879Z,100.00
2024-04-15T20:05:51.446Z,100.00
2024-04-15T20:08:21.924Z,100.00
2024-04-15T20:10:52.406Z,100.00
2024-04-15T20:13:20.301Z,100.00
2024-04-15T20:15:50.129Z,100.00
2024-04-15T20:18:37.553Z,100.00
2024-04-15T20:21:06.080Z,100.00
2024-04-15T20:23:35.717Z,100.00
2024-04-15T20:26:13.274Z,100.00
2024-04-15T20:28:44.272Z,100.00
2024-04-15T20:31:15.054Z,100.00
2024-04-15T20:33:42.950Z,100.00
2024-04-15T20:36:12.956Z,100.00
2024-04-15T20:38:45.069Z,100.00
2024-04-15T20:41:15.399Z,100.00
2024-04-15T20:43:44.279Z,100.00
2024-04-15T20:46:12.578Z,100.00
2024-04-15T20:48:40.668Z,100.00
2024-04-15T20:51:08.088Z,100.00
2024-04-15T20:53:35.925Z,100.00
2024-04-15T20:56:03.593Z,100.00
2024-04-15T20:58:31.007Z,100.00
2024-04-15T21:01:00.121Z,100.00
2024-04-15T21:03:27.860Z,100.00
2024-04-15T21:05:55.510Z,100.00
2024-04-15T21:08:22.832Z,100.00
2024-04-15T21:10:50.231Z,100.00
2024-04-15T21:13:17.790Z,100.00
2024-04-15T21:15:45.394Z,100.00
2024-04-15T21:18:12.728Z,100.00
2024-04-15T21:20:40.019Z,100.00
2024-04-15T21:23:07.653Z,100.00
2024-04-15T21:25:34.955Z,100.00
2024-04-15T21:28:02.616Z,100.00
2024-04-15T21:30:29.955Z,100.00
2024-04-15T21:32:58.792Z,100.00
2024-04-15T21:35:26.532Z,100.00
2024-04-15T21:38:12.246Z,100.00
2024-04-15T21:40:40.026Z,100.00
2024-04-15T21:43:07.404Z,100.00
2024-04-15T21:45:34.985Z,100.00
2024-04-15T21:48:02.409Z,100.00
2024-04-15T21:50:29.789Z,100.00
2024-04-15T21:52:57.315Z,100.00
2024-04-15T21:55:24.764Z,100.00
2024-04-15T21:57:52.118Z,100.00
2024-04-15T22:00:19.440Z,100.00
2024-04-15T22:02:49.657Z,100.00
2024-04-15T22:05:17.200Z,100.00
2024-04-15T22:07:44.582Z,100.00
2024-04-15T22:10:13.225Z,100.00
2024-04-15T22:12:41.640Z,100.00
2024-04-15T22:15:08.909Z,100.00
2024-04-15T22:17:36.720Z,100.00
2024-04-15T22:20:05.762Z,100.00
2024-04-15T22:22:33.464Z,100.00
2024-04-15T22:25:00.881Z,100.00
2024-04-15T22:27:28.225Z,100.00
2024-04-15T22:29:55.710Z,100.00
2024-04-15T22:32:23.065Z,100.00
2024-04-15T22:34:51.815Z,100.00
2024-04-15T22:37:19.109Z,100.00
2024-04-15T22:39:48.402Z,100.00
2024-04-15T22:42:15.721Z,100.00
2024-04-15T22:44:43.579Z,100.00
2024-04-15T22:47:10.927Z,100.00
2024-04-15T22:49:38.364Z,100.00
2024-04-15T22:52:06.749Z,100.00
2024-04-15T22:54:34.163Z,100.00
2024-04-15T22:57:01.784Z,100.00
2024-04-15T22:59:29.205Z,100.00
2024-04-15T23:01:56.738Z,100.00
2024-04-15T23:04:24.337Z,100.00
2024-04-15T23:06:52.929Z,100.00
2024-04-15T23:09:23.970Z,100.00
2024-04-15T23:11:51.706Z,100.00
2024-04-15T23:14:19.695Z,100.00
2024-04-15T23:16:46.967Z,100.00
2024-04-15T23:19:14.393Z,100.00
2024-04-15T23:21:41.712Z,100.00
2024-04-15T23:24:09.544Z,100.00
2024-04-15T23:26:36.824Z,100.00
2024-04-15T23:29:04.347Z,100.00
2024-04-15T23:31:31.978Z,100.00
2024-04-15T23:34:00.237Z,100.00
2024-04-15T23:36:27.441Z,100.00
2024-04-15T23:38:54.725Z,100.00
2024-04-15T23:41:21.854Z,100.00
2024-04-15T23:43:49.478Z,100.00
2024-04-15T23:46:35.914Z,100.00
2024-04-15T23:49:21.806Z,100.00
2024-04-15T23:52:07.930Z,100.00
2024-04-15T23:54:54.063Z,100.00
2024-04-15T23:57:40.525Z,100.00
